Time;durP1;ratioP1;P1;durP2;ratioP2;P2;SDS_P1;SDS_P2;PMS_P1;PMS_P2;Temp;Humidity;BMP_temperature;BMP_pressure;BME280_temperature;BME280_humidity;BME280_pressure;Samples;Min_cycle;Max_cycle;Signal;HPM_P1;HPM_P2
2023/11/09 00:01:26;;;;;;;;;;;6.60;70.60;;;;;;5113544;28;20291;-67
2023/11/09 00:03:52;;;;;;;;;;;6.50;70.60;;;;;;5114047;27;19994;-69
2023/11/09 00:06:20;;;;;;;;;;;6.40;70.60;;;;;;5112577;28;19968;-67
2023/11/09 00:08:46;;;;;;;;;;;6.50;70.80;;;;;;5113352;28;19922;-68
2023/11/09 00:11:12;;;;;;;;;;;6.50;70.80;;;;;;5112036;28;20373;-68
2023/11/09 00:13:38;;;;;;;;;;;6.50;71.10;;;;;;5112519;28;19926;-68
2023/11/09 00:16:04;;;;;;;;;;;6.50;71.40;;;;;;5112331;28;19919;-67
2023/11/09 00:18:31;;;;;;;;;;;6.40;71.20;;;;;;5113527;28;19918;-67
2023/11/09 00:20:58;;;;;;;;;;;6.40;72.20;;;;;;5112895;28;19920;-67
2023/11/09 00:23:24;;;;;;;;;;;6.40;72.30;;;;;;5112454;28;19915;-68
2023/11/09 00:25:51;;;;;;;;;;;6.30;72.30;;;;;;5112188;28;19920;-68
2023/11/09 00:28:18;;;;;;;;;;;6.30;72.60;;;;;;5113518;28;19935;-67
2023/11/09 00:30:45;;;;;;;;;;;6.30;72.50;;;;;;5112888;28;19920;-68
2023/11/09 00:33:11;;;;;;;;;;;6.30;72.60;;;;;;5095217;28;19919;-68
2023/11/09 00:35:39;;;;;;;;;;;6.30;72.60;;;;;;5112064;28;20439;-69
2023/11/09 00:38:06;;;;;;;;;;;6.30;72.70;;;;;;5113543;28;20353;-70
2023/11/09 00:40:32;;;;;;;;;;;6.40;72.60;;;;;;5111392;28;19946;-70
2023/11/09 00:42:58;;;;;;;;;;;6.30;72.50;;;;;;5113404;28;19922;-70
2023/11/09 00:45:24;;;;;;;;;;;6.30;73.70;;;;;;5111928;28;20376;-69
2023/11/09 00:47:52;;;;;;;;;;;6.30;73.00;;;;;;5095125;28;20387;-70
2023/11/09 00:50:17;;;;;;;;;;;6.40;72.90;;;;;;5112445;28;19923;-69
2023/11/09 00:52:43;;;;;;;;;;;6.40;72.90;;;;;;5113630;28;19923;-70
2023/11/09 00:55:09;;;;;;;;;;;6.30;72.90;;;;;;5113111;28;19920;-68
2023/11/09 00:57:35;;;;;;;;;;;6.30;73.20;;;;;;5112127;28;19916;-68
2023/11/09 01:00:03;;;;;;;;;;;6.30;73.10;;;;;;5113032;28;20002;-70
2023/11/09 01:02:34;;;;;;;;;;;6.20;73.00;;;;;;5111698;28;19964;-67
2023/11/09 01:05:00;;;;;;;;;;;6.10;73.20;;;;;;5113255;28;19919;-68
2023/11/09 01:07:26;;;;;;;;;;;6.10;73.40;;;;;;5113330;28;20379;-67
2023/11/09 01:09:52;;;;;;;;;;;6.10;73.40;;;;;;5114119;28;19934;-68
2023/11/09 01:12:17;;;;;;;;;;;6.00;73.40;;;;;;5115546;28;20022;-68
2023/11/09 01:14:43;;;;;;;;;;;6.00;73.40;;;;;;5115985;28;20333;-70
2023/11/09 01:17:11;;;;;;;;;;;5.90;73.40;;;;;;5115978;28;20006;-69
2023/11/09 01:19:37;;;;;;;;;;;5.90;73.20;;;;;;5115785;28;19920;-69
2023/11/09 01:22:04;;;;;;;;;;;5.90;73.20;;;;;;5098398;28;19959;-67
2023/11/09 01:24:29;;;;;;;;;;;5.90;73.40;;;;;;5117005;28;19912;-68
2023/11/09 01:26:55;;;;;;;;;;;5.90;73.40;;;;;;5115649;28;20015;-67
2023/11/09 01:32:05;;;;;;;;;;;5.80;73.10;;;;;;5116654;28;20263;-69
2023/11/09 01:34:31;;;;;;;;;;;5.80;72.90;;;;;;5116925;28;20002;-69
2023/11/09 01:36:57;;;;;;;;;;;5.80;72.30;;;;;;5115600;28;19920;-69
2023/11/09 01:39:23;;;;;;;;;;;5.70;72.80;;;;;;5098138;28;20028;-70
2023/11/09 01:41:50;;;;;;;;;;;5.70;72.90;;;;;;5114810;28;19924;-70
2023/11/09 01:44:16;;;;;;;;;;;5.60;72.80;;;;;;5115419;28;19918;-70
2023/11/09 01:46:43;;;;;;;;;;;5.70;72.90;;;;;;5098168;28;19919;-70
2023/11/09 01:49:10;;;;;;;;;;;5.60;72.70;;;;;;5116448;28;19998;-70
2023/11/09 01:51:37;;;;;;;;;;;5.60;72.60;;;;;;5114370;28;19924;-71
2023/11/09 01:54:04;;;;;;;;;;;5.60;72.50;;;;;;5115104;28;20315;-70
2023/11/09 01:56:30;;;;;;;;;;;5.60;72.70;;;;;;5115039;28;20360;-70
2023/11/09 01:58:56;;;;;;;;;;;5.60;72.70;;;;;;5116293;28;19912;-70
2023/11/09 02:01:24;;;;;;;;;;;5.60;72.40;;;;;;5114517;28;19919;-70
2023/11/09 02:03:50;;;;;;;;;;;5.60;72.50;;;;;;5115160;28;20339;-70
2023/11/09 02:06:18;;;;;;;;;;;5.60;72.90;;;;;;5114963;28;19916;-70
2023/11/09 02:08:45;;;;;;;;;;;5.50;72.20;;;;;;5114748;28;19919;-68
2023/11/09 02:11:10;;;;;;;;;;;5.50;72.80;;;;;;5114196;28;19973;-69
2023/11/09 02:13:36;;;;;;;;;;;5.60;72.80;;;;;;5114886;28;19915;-69
2023/11/09 02:16:04;;;;;;;;;;;5.50;73.00;;;;;;5114919;28;19923;-68
2023/11/09 02:18:34;;;;;;;;;;;5.40;72.80;;;;;;5115867;28;20356;-70
2023/11/09 02:20:59;;;;;;;;;;;5.40;73.00;;;;;;5113678;28;19961;-70
2023/11/09 02:23:31;;;;;;;;;;;5.40;73.20;;;;;;5115801;28;19916;-70
2023/11/09 02:25:57;;;;;;;;;;;5.40;73.00;;;;;;5114765;28;20356;-71
2023/11/09 02:28:23;;;;;;;;;;;5.40;73.20;;;;;;5114441;28;19941;-70
2023/11/09 02:30:50;;;;;;;;;;;5.40;74.00;;;;;;5115236;28;19919;-69
2023/11/09 02:33:16;;;;;;;;;;;5.50;73.20;;;;;;5114455;28;20014;-67
2023/11/09 02:35:42;;;;;;;;;;;5.40;72.70;;;;;;5097499;28;19916;-68
2023/11/09 02:38:11;;;;;;;;;;;5.50;72.90;;;;;;5115422;28;20457;-69
2023/11/09 02:40:37;;;;;;;;;;;5.40;72.50;;;;;;5113474;28;19922;-71
2023/11/09 02:43:03;;;;;;;;;;;5.40;72.70;;;;;;5097205;28;19920;-70
2023/11/09 02:45:29;;;;;;;;;;;5.30;71.90;;;;;;5114151;28;19946;-70
2023/11/09 02:47:56;;;;;;;;;;;5.40;72.30;;;;;;5114267;28;19951;-70
2023/11/09 02:50:22;;;;;;;;;;;5.40;72.50;;;;;;5114562;28;19947;-69
2023/11/09 02:52:48;;;;;;;;;;;5.40;72.60;;;;;;5115102;28;19926;-70
2023/11/09 02:55:15;;;;;;;;;;;5.40;72.40;;;;;;5113953;28;20279;-69
2023/11/09 02:57:41;;;;;;;;;;;5.30;72.20;;;;;;5114198;28;19923;-70
2023/11/09 03:00:09;;;;;;;;;;;5.30;72.50;;;;;;5114500;28;20296;-70
2023/11/09 03:02:35;;;;;;;;;;;5.40;72.40;;;;;;5114078;28;20383;-70
2023/11/09 03:05:01;;;;;;;;;;;5.40;71.80;;;;;;5113764;28;19915;-70
2023/11/09 03:07:27;;;;;;;;;;;5.40;72.40;;;;;;5113564;28;19937;-70
2023/11/09 03:09:54;;;;;;;;;;;5.50;72.30;;;;;;5114873;27;19915;-70
2023/11/09 03:12:20;;;;;;;;;;;5.40;72.20;;;;;;5096198;28;19920;-69
2023/11/09 03:14:46;;;;;;;;;;;5.50;72.30;;;;;;5113815;28;19964;-70
2023/11/09 03:17:12;;;;;;;;;;;5.50;72.30;;;;;;5113626;28;20402;-71
2023/11/09 03:19:39;;;;;;;;;;;5.50;72.70;;;;;;5096393;28;19916;-70
2023/11/09 03:24:50;;;;;;;;;;;5.50;72.50;;;;;;5115155;28;19922;-70
2023/11/09 03:27:16;;;;;;;;;;;5.50;72.80;;;;;;5113321;28;19961;-70
2023/11/09 03:29:42;;;;;;;;;;;5.50;73.00;;;;;;5114463;27;20314;-69
2023/11/09 03:32:09;;;;;;;;;;;5.50;72.80;;;;;;5094727;28;20006;-71
2023/11/09 03:34:37;;;;;;;;;;;5.50;73.00;;;;;;5114757;28;20018;-70
2023/11/09 03:37:03;;;;;;;;;;;5.50;73.80;;;;;;5113128;28;19922;-70
2023/11/09 03:39:33;;;;;;;;;;;5.50;73.10;;;;;;5112875;28;19946;-70
2023/11/09 03:41:59;;;;;;;;;;;5.40;72.80;;;;;;5114130;27;19915;-70
2023/11/09 03:44:32;;;;;;;;;;;5.50;73.10;;;;;;5114260;27;19915;-70
2023/11/09 03:46:58;;;;;;;;;;;5.40;72.80;;;;;;5096025;28;19915;-68
2023/11/09 03:49:24;;;;;;;;;;;5.40;73.10;;;;;;5112862;28;20284;-68
2023/11/09 03:51:50;;;;;;;;;;;5.40;73.30;;;;;;5112395;28;20370;-68
2023/11/09 03:54:16;;;;;;;;;;;5.40;73.00;;;;;;5112929;28;20343;-67
2023/11/09 03:56:42;;;;;;;;;;;5.40;73.10;;;;;;5114042;28;19919;-67
2023/11/09 03:59:08;;;;;;;;;;;5.40;73.10;;;;;;5112810;28;20318;-70
2023/11/09 04:01:34;;;;;;;;;;;5.40;73.00;;;;;;5112211;28;19924;-69
2023/11/09 04:04:00;;;;;;;;;;;5.40;73.30;;;;;;5112671;28;20007;-70
2023/11/09 04:06:26;;;;;;;;;;;5.40;73.10;;;;;;5112593;28;19961;-68
2023/11/09 04:08:52;;;;;;;;;;;5.40;73.20;;;;;;5095380;28;19961;-69
2023/11/09 04:11:18;;;;;;;;;;;5.50;73.40;;;;;;5113258;28;19993;-70
2023/11/09 04:13:44;;;;;;;;;;;5.40;73.20;;;;;;5113761;28;19915;-70
2023/11/09 04:16:10;;;;;;;;;;;5.40;73.20;;;;;;5112463;28;20032;-69
2023/11/09 04:18:37;;;;;;;;;;;5.40;73.40;;;;;;5112295;28;20371;-69
2023/11/09 04:21:03;;;;;;;;;;;5.40;73.20;;;;;;5094635;28;19927;-68
2023/11/09 04:23:29;;;;;;;;;;;5.40;72.70;;;;;;5095457;28;19912;-67
2023/11/09 04:25:55;;;;;;;;;;;5.40;73.10;;;;;;5113752;28;20006;-67
2023/11/09 04:28:21;;;;;;;;;;;5.40;73.10;;;;;;5113558;28;19918;-70
2023/11/09 04:30:51;;;;;;;;;;;5.40;72.80;;;;;;5112923;28;19921;-69
2023/11/09 04:33:17;;;;;;;;;;;5.40;72.90;;;;;;5113435;28;19945;-71
2023/11/09 04:35:46;;;;;;;;;;;5.40;73.00;;;;;;5113391;28;19928;-69
2023/11/09 04:38:15;;;;;;;;;;;5.40;73.10;;;;;;5111981;28;19911;-68
2023/11/09 04:40:43;;;;;;;;;;;5.40;72.80;;;;;;5111408;28;19923;-68
2023/11/09 04:43:11;;;;;;;;;;;5.30;73.00;;;;;;5113076;28;19916;-67
2023/11/09 04:45:42;;;;;;;;;;;5.30;73.40;;;;;;5112186;28;19915;-69
2023/11/09 04:48:19;;;;;;;;;;;5.30;72.60;;;;;;5113186;28;20044;-69
2023/11/09 04:51:06;;;;;;;;;;;5.30;73.40;;;;;;5112797;28;19926;-69
2023/11/09 04:53:40;;;;;;;;;;;5.40;73.20;;;;;;5113235;28;19915;-69
2023/11/09 04:59:01;;;;;;;;;;;5.40;73.10;;;;;;5113213;28;19919;-67
2023/11/09 05:06:59;;;;;;;;;;;5.40;73.60;;;;;;5113376;28;19974;-70
2023/11/09 05:09:27;;;;;;;;;;;5.40;73.70;;;;;;5111725;28;19912;-67
2023/11/09 05:11:53;;;;;;;;;;;5.40;72.80;;;;;;5094674;28;19955;-69
2023/11/09 05:14:19;;;;;;;;;;;5.40;72.80;;;;;;5113066;28;19957;-69
2023/11/09 05:16:45;;;;;;;;;;;5.40;72.90;;;;;;5113201;28;19923;-70
2023/11/09 05:19:12;;;;;;;;;;;5.40;73.50;;;;;;5111631;28;19999;-71
2023/11/09 05:21:39;;;;;;;;;;;5.30;73.40;;;;;;5111029;28;19919;-71
2023/11/09 05:24:05;;;;;;;;;;;5.30;73.20;;;;;;5113060;28;19911;-71
2023/11/09 05:26:34;;;;;;;;;;;5.30;73.20;;;;;;5111706;28;19920;-70
2023/11/09 05:29:00;;;;;;;;;;;5.40;73.00;;;;;;5111799;28;19912;-69
2023/11/09 05:31:26;;;;;;;;;;;5.40;73.20;;;;;;5112556;28;20276;-69
2023/11/09 05:33:53;;;;;;;;;;;5.30;73.30;;;;;;5105973;28;19912;-71
2023/11/09 05:36:21;;;;;;;;;;;5.30;73.20;;;;;;5087926;28;20372;-69
2023/11/09 05:38:48;;;;;;;;;;;5.30;73.00;;;;;;5094944;28;19919;-70
2023/11/09 05:41:15;;;;;;;;;;;5.20;73.20;;;;;;5090564;28;19944;-70
2023/11/09 05:43:41;;;;;;;;;;;5.30;73.80;;;;;;5091377;28;20358;-70
2023/11/09 05:46:08;;;;;;;;;;;5.20;73.30;;;;;;5092509;28;19927;-69
2023/11/09 05:48:33;;;;;;;;;;;5.20;73.60;;;;;;5091154;28;19912;-69
2023/11/09 05:50:59;;;;;;;;;;;5.20;73.70;;;;;;5091697;28;19926;-70
2023/11/09 05:53:28;;;;;;;;;;;5.20;74.10;;;;;;5090999;28;19919;-70
2023/11/09 05:55:55;;;;;;;;;;;5.10;74.00;;;;;;5094397;28;19924;-69
2023/11/09 05:58:21;;;;;;;;;;;5.10;73.80;;;;;;5094580;28;19912;-70
2023/11/09 06:00:47;;;;;;;;;;;5.10;74.00;;;;;;5094115;28;20483;-69
2023/11/09 06:03:12;;;;;;;;;;;5.10;74.20;;;;;;5094428;28;20369;-69
2023/11/09 06:05:39;;;;;;;;;;;5.10;74.10;;;;;;5077504;28;20042;-70
2023/11/09 06:08:08;;;;;;;;;;;5.00;74.20;;;;;;5094566;28;19911;-70
2023/11/09 06:10:34;;;;;;;;;;;5.00;74.20;;;;;;5093821;28;20065;-70
2023/11/09 06:13:00;;;;;;;;;;;5.00;74.10;;;;;;5077537;28;19951;-70
2023/11/09 06:15:26;;;;;;;;;;;5.00;73.50;;;;;;5095508;28;19922;-70
2023/11/09 06:17:52;;;;;;;;;;;5.00;74.20;;;;;;5094211;28;19916;-69
2023/11/09 06:20:20;;;;;;;;;;;4.90;73.60;;;;;;5094664;28;19912;-70
2023/11/09 06:22:46;;;;;;;;;;;5.00;73.80;;;;;;5095986;28;19985;-70
2023/11/09 06:25:13;;;;;;;;;;;4.90;73.60;;;;;;5094568;28;19916;-69
2023/11/09 06:27:39;;;;;;;;;;;5.00;73.40;;;;;;5094046;28;19915;-70
2023/11/09 06:30:07;;;;;;;;;;;4.90;72.90;;;;;;5094772;28;20346;-70
2023/11/09 06:35:18;;;;;;;;;;;5.00;73.30;;;;;;5094117;28;19997;-69
2023/11/09 06:37:45;;;;;;;;;;;5.00;73.10;;;;;;5094253;28;20322;-71
2023/11/09 06:40:12;;;;;;;;;;;5.00;73.00;;;;;;5094191;28;19916;-70
2023/11/09 06:42:39;;;;;;;;;;;5.10;72.90;;;;;;5077225;28;20315;-70
2023/11/09 06:45:05;;;;;;;;;;;5.10;73.00;;;;;;5093802;28;19923;-69
2023/11/09 06:47:34;;;;;;;;;;;5.10;72.40;;;;;;5076875;28;19916;-71
2023/11/09 06:49:59;;;;;;;;;;;5.20;72.50;;;;;;5094917;28;20010;-70
2023/11/09 06:52:25;;;;;;;;;;;5.20;72.70;;;;;;5094765;28;20296;-70
2023/11/09 06:54:51;;;;;;;;;;;5.20;72.50;;;;;;5076865;28;19916;-69
2023/11/09 06:57:17;;;;;;;;;;;5.30;72.40;;;;;;5094983;28;19977;-69
2023/11/09 06:59:43;;;;;;;;;;;5.30;72.30;;;;;;5094714;28;20280;-70
2023/11/09 07:02:09;;;;;;;;;;;5.30;72.00;;;;;;5094546;28;20016;-70
2023/11/09 07:04:35;;;;;;;;;;;5.40;71.20;;;;;;5093498;28;19912;-70
2023/11/09 07:07:02;;;;;;;;;;;5.50;71.70;;;;;;5093323;28;19972;-69
2023/11/09 07:09:28;;;;;;;;;;;5.50;71.10;;;;;;5093271;28;20334;-70
2023/11/09 07:11:54;;;;;;;;;;;5.60;71.60;;;;;;5092707;28;19924;-70
2023/11/09 07:14:23;;;;;;;;;;;5.60;71.20;;;;;;5094487;28;19970;-70
2023/11/09 07:17:00;;;;;;;;;;;5.70;71.20;;;;;;5093181;28;19920;-70
2023/11/09 07:19:26;;;;;;;;;;;5.70;70.60;;;;;;5093071;28;19912;-70
2023/11/09 07:21:53;;;;;;;;;;;5.70;70.90;;;;;;5094082;28;20037;-70
2023/11/09 07:24:19;;;;;;;;;;;5.80;70.70;;;;;;5094411;28;19951;-71
2023/11/09 07:26:45;;;;;;;;;;;5.90;70.70;;;;;;5094481;28;19939;-70
2023/11/09 07:29:11;;;;;;;;;;;5.90;70.30;;;;;;5092992;28;19942;-71
2023/11/09 07:31:37;;;;;;;;;;;6.00;70.10;;;;;;5093731;28;19924;-70
2023/11/09 07:34:03;;;;;;;;;;;6.10;70.10;;;;;;5076092;28;20258;-70
2023/11/09 07:36:28;;;;;;;;;;;6.20;69.20;;;;;;5092836;28;20010;-70
2023/11/09 07:38:54;;;;;;;;;;;6.30;69.70;;;;;;5092578;28;19918;-70
2023/11/09 07:41:25;;;;;;;;;;;6.40;69.40;;;;;;5093371;28;19924;-70
2023/11/09 07:43:52;;;;;;;;;;;6.50;69.00;;;;;;5094019;28;20383;-71
2023/11/09 07:46:18;;;;;;;;;;;6.50;69.20;;;;;;5092791;28;19924;-69
2023/11/09 07:48:44;;;;;;;;;;;6.60;68.90;;;;;;5093659;28;19923;-68
2023/11/09 07:51:09;;;;;;;;;;;6.80;68.50;;;;;;5093069;28;20434;-68
2023/11/09 07:53:35;;;;;;;;;;;6.90;68.30;;;;;;5093624;28;19999;-68
2023/11/09 07:56:01;;;;;;;;;;;7.00;68.20;;;;;;5093827;28;20018;-67
2023/11/09 07:58:27;;;;;;;;;;;7.10;68.40;;;;;;5092360;28;19916;-70
2023/11/09 08:00:54;;;;;;;;;;;7.20;68.00;;;;;;5093030;28;19920;-70
2023/11/09 08:03:19;;;;;;;;;;;7.40;67.90;;;;;;5075484;28;19916;-69
2023/11/09 08:05:47;;;;;;;;;;;7.40;67.10;;;;;;5093581;28;19916;-70
2023/11/09 08:08:14;;;;;;;;;;;7.40;67.30;;;;;;5092005;28;20011;-71
2023/11/09 08:11:00;;;;;;;;;;;7.50;67.30;;;;;;5091706;28;19951;-70
2023/11/09 08:13:28;;;;;;;;;;;7.60;67.30;;;;;;5093373;28;19927;-70
2023/11/09 08:15:58;;;;;;;;;;;7.70;67.10;;;;;;5092175;28;19916;-67
2023/11/09 08:18:24;;;;;;;;;;;7.80;66.80;;;;;;5091617;28;19920;-67
2023/11/09 08:20:50;;;;;;;;;;;8.00;66.80;;;;;;5091106;28;19922;-67
2023/11/09 08:23:16;;;;;;;;;;;8.10;66.60;;;;;;5092073;28;19916;-68
2023/11/09 08:25:43;;;;;;;;;;;8.30;66.20;;;;;;5093256;28;19919;-69
2023/11/09 08:28:09;;;;;;;;;;;8.40;65.80;;;;;;5093259;28;19916;-67
2023/11/09 08:30:35;;;;;;;;;;;8.50;66.00;;;;;;5091206;28;20462;-67
2023/11/09 08:33:02;;;;;;;;;;;8.80;65.80;;;;;;5093253;28;19927;-68
2023/11/09 08:35:28;;;;;;;;;;;9.00;65.20;;;;;;5093179;28;20461;-69
2023/11/09 08:37:55;;;;;;;;;;;9.00;65.00;;;;;;5093282;28;20181;-70
2023/11/09 08:40:27;;;;;;;;;;;9.20;64.90;;;;;;5090999;28;20357;-70
2023/11/09 08:42:54;;;;;;;;;;;9.20;64.20;;;;;;5093007;28;19927;-69
2023/11/09 08:45:31;;;;;;;;;;;9.30;64.40;;;;;;5091721;28;19912;-70
2023/11/09 08:47:57;;;;;;;;;;;9.40;63.90;;;;;;5091973;28;19920;-68
2023/11/09 08:50:24;;;;;;;;;;;9.60;63.60;;;;;;5091104;28;19924;-67
2023/11/09 08:52:53;;;;;;;;;;;9.70;63.40;;;;;;5074816;28;20411;-67
2023/11/09 08:55:20;;;;;;;;;;;9.80;63.30;;;;;;5092868;28;20029;-68
2023/11/09 08:57:50;;;;;;;;;;;9.90;62.40;;;;;;5091885;28;19923;-69
2023/11/09 09:00:16;;;;;;;;;;;10.10;62.90;;;;;;5095923;28;19964;-68
2023/11/09 09:02:51;;;;;;;;;;;10.10;62.50;;;;;;5106269;28;19920;-69
2023/11/09 09:05:37;;;;;;;;;;;10.20;61.80;;;;;;5111962;28;20272;-70
2023/11/09 09:08:03;;;;;;;;;;;10.40;61.80;;;;;;5113072;28;19927;-71
2023/11/09 09:10:30;;;;;;;;;;;10.40;61.90;;;;;;5094091;28;19973;-70
2023/11/09 09:13:00;;;;;;;;;;;10.40;61.90;;;;;;5111980;28;19915;-69
2023/11/09 09:15:30;;;;;;;;;;;10.30;62.30;;;;;;5111854;28;19992;-68
2023/11/09 09:17:57;;;;;;;;;;;10.40;62.10;;;;;;5113059;28;19915;-68
2023/11/09 09:20:23;;;;;;;;;;;10.50;61.70;;;;;;5110989;28;19930;-68
2023/11/09 09:22:54;;;;;;;;;;;10.80;61.90;;;;;;5094836;28;20285;-69
2023/11/09 09:25:22;;;;;;;;;;;11.00;61.10;;;;;;5111772;28;19951;-68
2023/11/09 09:27:50;;;;;;;;;;;11.20;60.10;;;;;;5112873;28;19923;-69
2023/11/09 09:30:18;;;;;;;;;;;11.50;60.40;;;;;;5112925;28;20315;-70
2023/11/09 09:33:04;;;;;;;;;;;11.70;59.20;;;;;;5115939;28;19922;-70
2023/11/09 09:35:32;;;;;;;;;;;11.60;59.20;;;;;;5116719;28;19973;-68
2023/11/09 09:37:59;;;;;;;;;;;11.70;60.50;;;;;;5116824;28;19920;-68
2023/11/09 09:40:29;;;;;;;;;;;11.50;59.80;;;;;;5115718;28;20010;-67
2023/11/09 09:42:56;;;;;;;;;;;11.50;59.90;;;;;;5116775;28;19915;-68
2023/11/09 09:45:26;;;;;;;;;;;11.50;60.10;;;;;;5115417;28;19918;-68
2023/11/09 09:47:53;;;;;;;;;;;11.30;60.80;;;;;;5098832;28;19919;-68
2023/11/09 09:50:23;;;;;;;;;;;11.20;61.30;;;;;;5115855;28;19976;-69
2023/11/09 09:53:08;;;;;;;;;;;11.10;61.50;;;;;;5115123;28;19927;-68
2023/11/09 09:55:35;;;;;;;;;;;11.20;61.60;;;;;;5115279;28;19912;-68
2023/11/09 09:58:01;;;;;;;;;;;11.20;61.50;;;;;;5098089;28;19922;-68
2023/11/09 10:00:27;;;;;;;;;;;11.20;62.20;;;;;;5114342;28;20011;-67
2023/11/09 10:03:11;;;;;;;;;;;11.20;62.60;;;;;;5116242;28;19994;-67
2023/11/09 10:05:38;;;;;;;;;;;11.40;62.10;;;;;;5116221;28;20006;-68
2023/11/09 10:08:07;;;;;;;;;;;11.50;62.90;;;;;;5114926;28;19915;-69
2023/11/09 10:10:52;;;;;;;;;;;11.50;62.90;;;;;;5115786;28;19958;-68
2023/11/09 10:13:20;;;;;;;;;;;11.70;62.60;;;;;;5115018;28;19920;-70
2023/11/09 10:15:54;;;;;;;;;;;11.80;62.40;;;;;;5114871;28;19919;-70
2023/11/09 10:18:25;;;;;;;;;;;12.00;62.10;;;;;;5112777;28;19920;-67
2023/11/09 10:21:12;;;;;;;;;;;12.30;61.80;;;;;;5113858;28;19926;-68
2023/11/09 10:23:39;;;;;;;;;;;12.50;61.10;;;;;;5115933;28;19919;-69
2023/11/09 10:26:11;;;;;;;;;;;13.00;60.30;;;;;;5114637;28;19920;-67
2023/11/09 10:28:39;;;;;;;;;;;13.10;59.80;;;;;;5115809;28;19912;-68
2023/11/09 10:31:05;;;;;;;;;;;13.10;59.50;;;;;;5113917;28;20003;-68
2023/11/09 10:33:32;;;;;;;;;;;13.10;60.20;;;;;;5114432;28;19919;-68
2023/11/09 10:35:59;;;;;;;;;;;13.20;59.90;;;;;;5113983;28;19923;-68
2023/11/09 10:38:25;;;;;;;;;;;13.30;59.60;;;;;;5113465;28;20264;-67
2023/11/09 10:43:38;;;;;;;;;;;13.80;57.80;;;;;;5114349;28;19919;-68
2023/11/09 10:46:07;;;;;;;;;;;14.30;57.10;;;;;;5114241;28;19946;-67
2023/11/09 10:48:35;;;;;;;;;;;14.50;56.20;;;;;;5114120;28;19916;-68
2023/11/09 10:51:03;;;;;;;;;;;14.70;56.10;;;;;;5096750;28;19926;-68
2023/11/09 10:53:32;;;;;;;;;;;14.70;54.50;;;;;;5113925;28;19945;-69
2023/11/09 10:55:59;;;;;;;;;;;15.20;54.40;;;;;;5114204;28;19946;-68
2023/11/09 10:58:26;;;;;;;;;;;16.40;51.30;;;;;;5115141;28;19920;-68
2023/11/09 11:00:58;;;;;;;;;;;16.50;51.10;;;;;;5113161;28;19919;-69
2023/11/09 11:03:51;;;;;;;;;;;16.90;49.30;;;;;;5113934;28;20002;-67
2023/11/09 11:06:23;;;;;;;;;;;17.00;49.50;;;;;;5113951;28;19920;-69
2023/11/09 11:09:18;;;;;;;;;;;16.60;49.70;;;;;;5113645;28;19912;-67
2023/11/09 11:11:47;;;;;;;;;;;16.50;49.70;;;;;;5113277;28;19920;-69
2023/11/09 11:14:15;;;;;;;;;;;16.40;50.20;;;;;;5115104;28;20407;-68
2023/11/09 11:16:41;;;;;;;;;;;16.50;50.40;;;;;;5111656;28;19920;-68
2023/11/09 11:19:44;;;;;;;;;;;17.10;48.70;;;;;;5101517;28;19972;-68
2023/11/09 11:22:13;;;;;;;;;;;16.80;49.40;;;;;;5095673;28;19963;-68
2023/11/09 11:24:59;;;;;;;;;;;16.40;50.70;;;;;;5113578;28;19915;-68
2023/11/09 11:27:44;;;;;;;;;;;16.20;51.30;;;;;;5114541;28;19919;-68
2023/11/09 11:30:27;;;;;;;;;;;16.30;51.20;;;;;;5112708;28;20344;-67
2023/11/09 11:32:56;;;;;;;;;;;16.20;51.40;;;;;;5114598;28;19919;-68
2023/11/09 11:38:32;;;;;;;;;;;16.10;51.60;;;;;;5113260;28;19923;-68
2023/11/09 11:41:17;;;;;;;;;;;16.60;51.50;;;;;;5112511;28;20292;-68
2023/11/09 11:43:50;;;;;;;;;;;16.80;50.70;;;;;;5113217;28;19926;-68
2023/11/09 11:46:17;;;;;;;;;;;16.60;50.90;;;;;;5095533;28;19927;-67
2023/11/09 11:49:03;;;;;;;;;;;16.70;51.30;;;;;;5113002;28;19919;-68
2023/11/09 11:51:30;;;;;;;;;;;17.00;50.00;;;;;;5113635;27;19920;-67
2023/11/09 11:54:15;;;;;;;;;;;17.00;50.70;;;;;;5113294;28;19916;-68
2023/11/09 11:56:42;;;;;;;;;;;17.20;49.90;;;;;;5114273;28;19976;-68
2023/11/09 11:59:12;;;;;;;;;;;17.30;50.30;;;;;;5112895;28;20005;-69
2023/11/09 12:01:40;;;;;;;;;;;17.30;50.20;;;;;;5113513;28;20367;-68
2023/11/09 12:04:06;;;;;;;;;;;17.40;50.20;;;;;;5113932;28;19947;-68
2023/11/09 12:06:37;;;;;;;;;;;17.60;49.80;;;;;;5112764;28;19919;-67
2023/11/09 12:09:08;;;;;;;;;;;17.50;49.40;;;;;;5112556;28;20369;-68
2023/11/09 12:12:00;;;;;;;;;;;17.50;49.50;;;;;;5112295;28;19924;-68
2023/11/09 12:14:26;;;;;;;;;;;17.90;48.50;;;;;;5109783;28;19930;-68
2023/11/09 12:16:52;;;;;;;;;;;17.70;49.10;;;;;;5102345;28;20347;-68
2023/11/09 12:19:18;;;;;;;;;;;17.40;49.50;;;;;;5113545;28;19915;-68
2023/11/09 12:22:02;;;;;;;;;;;17.20;49.60;;;;;;5094623;28;19920;-68
2023/11/09 12:24:28;;;;;;;;;;;16.80;50.70;;;;;;5093285;28;19916;-68
2023/11/09 12:27:13;;;;;;;;;;;16.50;51.40;;;;;;5091745;28;20022;-68
2023/11/09 12:29:43;;;;;;;;;;;16.30;51.80;;;;;;5093239;28;19918;-68
2023/11/09 12:32:11;;;;;;;;;;;16.10;51.80;;;;;;5091573;28;19920;-68
2023/11/09 12:34:56;;;;;;;;;;;15.90;52.30;;;;;;5075461;28;19912;-68
2023/11/09 12:37:29;;;;;;;;;;;15.90;53.00;;;;;;5091910;28;20380;-68
2023/11/09 12:39:56;;;;;;;;;;;16.10;52.50;;;;;;5091741;28;20414;-68
2023/11/09 12:45:25;;;;;;;;;;;16.50;52.20;;;;;;5093156;28;19918;-71
2023/11/09 12:47:51;;;;;;;;;;;17.00;50.60;;;;;;5093100;28;19990;-67
2023/11/09 12:50:21;;;;;;;;;;;17.20;50.40;;;;;;5090956;28;19916;-67
2023/11/09 12:52:47;;;;;;;;;;;17.60;49.40;;;;;;5075130;28;19920;-69
2023/11/09 12:55:14;;;;;;;;;;;17.60;48.60;;;;;;5092829;28;20011;-68
2023/11/09 12:57:41;;;;;;;;;;;17.30;48.70;;;;;;5091877;28;19920;-68
2023/11/09 13:00:19;;;;;;;;;;;17.40;49.60;;;;;;5090906;28;19912;-68
2023/11/09 13:02:47;;;;;;;;;;;17.50;49.30;;;;;;5092175;28;20327;-68
2023/11/09 13:05:18;;;;;;;;;;;17.50;49.40;;;;;;5094625;28;19912;-67
2023/11/09 13:10:30;;;;;;;;;;;17.60;49.10;;;;;;5095312;28;20421;-69
2023/11/09 13:12:57;;;;;;;;;;;17.80;48.50;;;;;;5095826;28;19916;-68
2023/11/09 13:18:07;;;;;;;;;;;17.10;50.20;;;;;;5096953;28;19965;-69
2023/11/09 13:20:36;;;;;;;;;;;16.90;51.30;;;;;;5094763;28;19924;-68
2023/11/09 13:25:50;;;;;;;;;;;16.70;52.20;;;;;;5116148;28;19938;-68
2023/11/09 13:28:16;;;;;;;;;;;18.50;48.50;;;;;;5116887;28;20006;-69
2023/11/09 13:33:35;;;;;;;;;;;19.30;44.40;;;;;;5115742;28;19916;-68
2023/11/09 13:36:35;;;;;;;;;;;19.20;44.70;;;;;;5115605;28;19915;-68
2023/11/09 13:39:33;;;;;;;;;;;18.40;46.10;;;;;;5115582;28;19922;-67
2023/11/09 13:41:51;;;;;;;;;;;18.70;46.90;;;;;;5116327;28;19927;-68
2023/11/09 13:44:22;;;;;;;;;;;18.40;46.80;;;;;;5116612;28;20373;-68
2023/11/09 13:46:48;;;;;;;;;;;17.80;47.80;;;;;;5115620;28;19978;-69
2023/11/09 13:59:43;;;;;;;;;;;16.80;51.60;;;;;;5115262;28;19915;-68
2023/11/09 14:02:16;;;;;;;;;;;16.70;51.90;;;;;;5114594;28;19923;-67
2023/11/09 14:05:03;;;;;;;;;;;16.60;52.50;;;;;;5105335;28;19919;-67
2023/11/09 14:07:33;;;;;;;;;;;16.40;53.20;;;;;;5094960;28;19965;-68
2023/11/09 14:10:05;;;;;;;;;;;16.30;53.90;;;;;;5095568;28;19920;-69
2023/11/09 14:12:37;;;;;;;;;;;16.10;54.20;;;;;;5094370;28;19924;-67
2023/11/09 14:15:25;;;;;;;;;;;16.10;54.50;;;;;;5094301;28;19912;-68
2023/11/09 14:17:52;;;;;;;;;;;16.00;54.80;;;;;;5095593;28;19959;-67
2023/11/09 14:20:34;;;;;;;;;;;15.90;54.90;;;;;;5093958;28;19912;-68
2023/11/09 14:23:03;;;;;;;;;;;15.80;55.00;;;;;;5094650;28;20411;-67
2023/11/09 14:25:31;;;;;;;;;;;15.70;55.20;;;;;;5094332;28;19934;-67
2023/11/09 14:27:58;;;;;;;;;;;15.60;55.30;;;;;;5077307;28;19955;-68
2023/11/09 14:33:10;;;;;;;;;;;15.40;56.00;;;;;;5094256;28;19916;-68
2023/11/09 14:35:41;;;;;;;;;;;15.30;56.40;;;;;;5094099;28;20475;-68
2023/11/09 14:38:08;;;;;;;;;;;15.30;56.60;;;;;;5094221;28;19916;-67
2023/11/09 14:40:42;;;;;;;;;;;15.30;56.80;;;;;;5094465;28;19943;-68
2023/11/09 14:43:13;;;;;;;;;;;15.20;56.90;;;;;;5093901;28;19959;-67
2023/11/09 14:45:41;;;;;;;;;;;15.10;57.20;;;;;;5095251;28;19927;-68
2023/11/09 14:48:10;;;;;;;;;;;15.10;57.20;;;;;;5094035;28;20557;-67
2023/11/09 14:50:37;;;;;;;;;;;15.00;57.50;;;;;;5093020;28;19955;-68
2023/11/09 14:53:10;;;;;;;;;;;15.00;57.60;;;;;;5076786;28;20388;-68
2023/11/09 14:55:38;;;;;;;;;;;15.00;57.90;;;;;;5094864;28;19947;-68
2023/11/09 14:58:25;;;;;;;;;;;15.00;58.00;;;;;;5093630;28;19923;-69
2023/11/09 15:00:51;;;;;;;;;;;15.00;57.70;;;;;;5093238;28;19924;-68
2023/11/09 15:03:23;;;;;;;;;;;15.00;58.30;;;;;;5093509;28;19920;-68
2023/11/09 15:05:52;;;;;;;;;;;14.90;58.30;;;;;;5093744;28;19920;-68
2023/11/09 15:08:23;;;;;;;;;;;14.90;58.10;;;;;;5094521;28;20353;-67
2023/11/09 15:10:49;;;;;;;;;;;14.80;57.30;;;;;;5094134;28;19926;-69
2023/11/09 15:13:15;;;;;;;;;;;14.80;57.90;;;;;;5094634;28;20011;-68
2023/11/09 15:15:41;;;;;;;;;;;14.70;57.30;;;;;;5094565;28;19916;-68
2023/11/09 15:18:09;;;;;;;;;;;14.70;56.80;;;;;;5093110;28;19912;-68
2023/11/09 15:20:35;;;;;;;;;;;14.70;57.20;;;;;;5092356;28;20007;-68
2023/11/09 15:23:05;;;;;;;;;;;14.60;57.10;;;;;;5097694;28;19935;-69